sensor_id;sensor_type;location;lat;lon;timestamp;P1;durP1;ratioP1;P2;durP2;ratioP2
74122;SDS011;62474;50.780;15.074;2022-08-19T13:22:23;17.70;;;12.68;;
74122;SDS011;62474;50.780;15.074;2022-08-19T13:24:55;16.05;;;12.52;;
74122;SDS011;62474;50.780;15.074;2022-08-19T14:05:52;13.83;;;10.07;;
74122;SDS011;62474;50.780;15.074;2022-08-19T14:08:18;13.60;;;9.90;;
74122;SDS011;62474;50.780;15.074;2022-08-19T14:10:44;13.95;;;10.15;;
74122;SDS011;62474;50.780;15.074;2022-08-19T14:13:12;13.68;;;9.50;;
74122;SDS011;62474;50.780;15.074;2022-08-19T14:15:39;14.75;;;10.30;;
74122;SDS011;62474;50.780;15.074;2022-08-19T14:18:05;13.70;;;9.57;;
74122;SDS011;62474;50.780;15.074;2022-08-19T14:20:33;13.15;;;8.75;;
74122;SDS011;62474;50.780;15.074;2022-08-19T14:22:59;14.00;;;9.20;;
74122;SDS011;62474;50.780;15.074;2022-08-19T14:25:26;12.88;;;9.13;;
74122;SDS011;62474;50.780;15.074;2022-08-19T14:27:53;12.60;;;8.73;;
74122;SDS011;62474;50.780;15.074;2022-08-19T14:30:21;11.73;;;8.87;;
74122;SDS011;62474;50.780;15.074;2022-08-19T14:32:47;13.88;;;7.85;;
74122;SDS011;62474;50.780;15.074;2022-08-19T14:35:15;13.70;;;8.77;;
74122;SDS011;62474;50.780;15.074;2022-08-19T14:37:42;14.98;;;8.85;;
74122;SDS011;62474;50.780;15.074;2022-08-19T14:40:08;12.18;;;9.07;;
74122;SDS011;62474;50.780;15.074;2022-08-19T14:42:34;11.27;;;9.07;;
74122;SDS011;62474;50.780;15.074;2022-08-19T14:45:01;13.32;;;8.95;;
74122;SDS011;62474;50.780;15.074;2022-08-19T14:47:27;13.13;;;9.70;;
74122;SDS011;62474;50.780;15.074;2022-08-19T14:49:53;12.82;;;9.82;;
74122;SDS011;62474;50.780;15.074;2022-08-19T14:52:19;12.27;;;9.38;;
74122;SDS011;62474;50.780;15.074;2022-08-19T14:54:45;10.87;;;8.33;;
74122;SDS011;62474;50.780;15.074;2022-08-19T14:57:12;13.10;;;8.98;;
74122;SDS011;62474;50.780;15.074;2022-08-19T14:59:39;12.80;;;9.30;;
74122;SDS011;62474;50.780;15.074;2022-08-19T15:02:05;13.52;;;9.48;;
74122;SDS011;62474;50.780;15.074;2022-08-19T15:04:31;15.15;;;10.40;;
74122;SDS011;62474;50.780;15.074;2022-08-19T15:06:57;14.57;;;10.23;;
74122;SDS011;62474;50.780;15.074;2022-08-19T15:09:23;14.68;;;10.02;;
74122;SDS011;62474;50.780;15.074;2022-08-19T15:11:49;14.60;;;10.10;;
74122;SDS011;62474;50.780;15.074;2022-08-19T15:14:16;16.17;;;9.80;;
74122;SDS011;62474;50.780;15.074;2022-08-19T15:16:42;14.82;;;10.00;;
74122;SDS011;62474;50.780;15.074;2022-08-19T15:19:08;13.43;;;9.83;;
74122;SDS011;62474;50.780;15.074;2022-08-19T15:21:34;14.38;;;10.27;;
74122;SDS011;62474;50.780;15.074;2022-08-19T15:24:01;15.57;;;10.30;;
74122;SDS011;62474;50.780;15.074;2022-08-19T15:26:28;19.30;;;10.68;;
74122;SDS011;62474;50.780;15.074;2022-08-19T15:28:57;14.88;;;10.30;;
74122;SDS011;62474;50.780;15.074;2022-08-19T15:31:24;15.13;;;10.50;;
74122;SDS011;62474;50.780;15.074;2022-08-19T15:33:52;12.98;;;10.23;;
74122;SDS011;62474;50.780;15.074;2022-08-19T15:36:20;13.98;;;10.02;;
74122;SDS011;62474;50.780;15.074;2022-08-19T15:38:47;12.52;;;9.57;;
74122;SDS011;62474;50.780;15.074;2022-08-19T15:41:19;12.07;;;9.65;;
74122;SDS011;62474;50.780;15.074;2022-08-19T15:43:53;13.17;;;9.67;;
74122;SDS011;62474;50.780;15.074;2022-08-19T15:46:22;11.75;;;9.30;;
74122;SDS011;62474;50.780;15.074;2022-08-19T15:48:49;16.33;;;10.52;;
74122;SDS011;62474;50.780;15.074;2022-08-19T15:51:16;14.63;;;10.20;;
74122;SDS011;62474;50.780;15.074;2022-08-19T15:53:42;14.75;;;10.10;;
74122;SDS011;62474;50.780;15.074;2022-08-19T15:56:09;15.67;;;10.17;;
74122;SDS011;62474;50.780;15.074;2022-08-19T15:58:35;14.35;;;10.35;;
74122;SDS011;62474;50.780;15.074;2022-08-19T16:01:19;15.18;;;10.07;;
74122;SDS011;62474;50.780;15.074;2022-08-19T16:04:04;15.15;;;9.77;;
74122;SDS011;62474;50.780;15.074;2022-08-19T16:06:50;13.20;;;9.98;;
74122;SDS011;62474;50.780;15.074;2022-08-19T16:09:16;15.00;;;10.00;;
74122;SDS011;62474;50.780;15.074;2022-08-19T16:11:43;14.27;;;9.80;;
74122;SDS011;62474;50.780;15.074;2022-08-19T16:14:09;14.82;;;10.90;;
74122;SDS011;62474;50.780;15.074;2022-08-19T16:16:36;14.75;;;9.70;;
74122;SDS011;62474;50.780;15.074;2022-08-19T16:19:04;14.90;;;10.38;;
74122;SDS011;62474;50.780;15.074;2022-08-19T16:21:31;15.73;;;10.23;;
74122;SDS011;62474;50.780;15.074;2022-08-19T16:23:59;16.90;;;10.18;;
74122;SDS011;62474;50.780;15.074;2022-08-19T16:26:25;16.08;;;10.00;;
74122;SDS011;62474;50.780;15.074;2022-08-19T16:28:57;14.68;;;9.73;;
74122;SDS011;62474;50.780;15.074;2022-08-19T16:31:24;14.52;;;10.32;;
74122;SDS011;62474;50.780;15.074;2022-08-19T16:33:50;13.80;;;9.43;;
74122;SDS011;62474;50.780;15.074;2022-08-19T16:36:17;15.77;;;9.25;;
74122;SDS011;62474;50.780;15.074;2022-08-19T16:38:43;14.05;;;9.48;;
74122;SDS011;62474;50.780;15.074;2022-08-19T16:41:13;12.40;;;8.75;;
74122;SDS011;62474;50.780;15.074;2022-08-19T16:43:39;17.25;;;9.23;;
74122;SDS011;62474;50.780;15.074;2022-08-19T16:46:06;12.23;;;8.67;;
74122;SDS011;62474;50.780;15.074;2022-08-19T16:48:32;13.45;;;9.25;;
74122;SDS011;62474;50.780;15.074;2022-08-19T16:50:59;13.30;;;9.25;;
74122;SDS011;62474;50.780;15.074;2022-08-19T16:53:25;14.52;;;9.63;;
74122;SDS011;62474;50.780;15.074;2022-08-19T16:55:53;12.50;;;9.27;;
74122;SDS011;62474;50.780;15.074;2022-08-19T16:58:19;13.13;;;9.03;;
74122;SDS011;62474;50.780;15.074;2022-08-19T17:00:49;14.38;;;9.00;;
74122;SDS011;62474;50.780;15.074;2022-08-19T17:03:15;14.65;;;9.13;;
74122;SDS011;62474;50.780;15.074;2022-08-19T17:05:42;12.85;;;9.80;;
74122;SDS011;62474;50.780;15.074;2022-08-19T17:08:08;14.52;;;9.50;;
74122;SDS011;62474;50.780;15.074;2022-08-19T17:10:34;19.53;;;9.40;;
74122;SDS011;62474;50.780;15.074;2022-08-19T17:13:02;14.73;;;9.52;;
74122;SDS011;62474;50.780;15.074;2022-08-19T17:15:28;14.02;;;9.85;;
74122;SDS011;62474;50.780;15.074;2022-08-19T17:17:59;12.68;;;8.98;;
74122;SDS011;62474;50.780;15.074;2022-08-19T17:20:27;15.25;;;9.88;;
74122;SDS011;62474;50.780;15.074;2022-08-19T17:22:53;13.53;;;9.43;;
74122;SDS011;62474;50.780;15.074;2022-08-19T17:25:21;13.50;;;9.80;;
74122;SDS011;62474;50.780;15.074;2022-08-19T17:27:47;15.30;;;10.07;;
74122;SDS011;62474;50.780;15.074;2022-08-19T17:30:13;14.23;;;10.85;;
74122;SDS011;62474;50.780;15.074;2022-08-19T17:32:39;18.35;;;11.15;;
74122;SDS011;62474;50.780;15.074;2022-08-19T17:35:06;13.50;;;10.33;;
74122;SDS011;62474;50.780;15.074;2022-08-19T17:37:32;16.27;;;10.93;;
74122;SDS011;62474;50.780;15.074;2022-08-19T17:40:00;18.05;;;11.38;;
74122;SDS011;62474;50.780;15.074;2022-08-19T17:42:26;19.02;;;12.50;;
74122;SDS011;62474;50.780;15.074;2022-08-19T17:44:52;16.52;;;11.65;;
74122;SDS011;62474;50.780;15.074;2022-08-19T17:47:23;19.67;;;11.93;;
74122;SDS011;62474;50.780;15.074;2022-08-19T17:49:49;18.48;;;13.07;;
74122;SDS011;62474;50.780;15.074;2022-08-19T17:52:15;18.17;;;13.20;;
74122;SDS011;62474;50.780;15.074;2022-08-19T17:54:42;19.30;;;13.43;;
74122;SDS011;62474;50.780;15.074;2022-08-19T17:57:08;18.80;;;13.10;;
74122;SDS011;62474;50.780;15.074;2022-08-19T17:59:34;20.53;;;13.23;;
74122;SDS011;62474;50.780;15.074;2022-08-19T18:02:01;16.80;;;12.73;;
74122;SDS011;62474;50.780;15.074;2022-08-19T18:04:28;19.90;;;13.68;;
74122;SDS011;62474;50.780;15.074;2022-08-19T18:06:54;20.13;;;13.90;;
74122;SDS011;62474;50.780;15.074;2022-08-19T18:09:31;21.33;;;14.90;;
74122;SDS011;62474;50.780;15.074;2022-08-19T18:11:59;19.40;;;13.70;;
74122;SDS011;62474;50.780;15.074;2022-08-19T18:14:29;23.13;;;14.75;;
74122;SDS011;62474;50.780;15.074;2022-08-19T18:16:57;20.80;;;13.95;;
74122;SDS011;62474;50.780;15.074;2022-08-19T18:19:24;23.35;;;15.02;;
74122;SDS011;62474;50.780;15.074;2022-08-19T18:21:50;21.60;;;16.23;;
74122;SDS011;62474;50.780;15.074;2022-08-19T18:24:16;20.73;;;15.07;;
74122;SDS011;62474;50.780;15.074;2022-08-19T18:26:43;22.33;;;15.82;;
74122;SDS011;62474;50.780;15.074;2022-08-19T18:29:09;22.48;;;16.17;;
74122;SDS011;62474;50.780;15.074;2022-08-19T18:31:35;24.83;;;16.05;;
74122;SDS011;62474;50.780;15.074;2022-08-19T18:34:02;25.10;;;16.45;;
74122;SDS011;62474;50.780;15.074;2022-08-19T18:36:32;22.20;;;15.47;;
74122;SDS011;62474;50.780;15.074;2022-08-19T18:39:00;26.25;;;18.30;;
74122;SDS011;62474;50.780;15.074;2022-08-19T18:41:45;27.50;;;17.48;;
74122;SDS011;62474;50.780;15.074;2022-08-19T18:44:29;28.67;;;18.80;;
74122;SDS011;62474;50.780;15.074;2022-08-19T18:47:14;27.70;;;18.88;;
74122;SDS011;62474;50.780;15.074;2022-08-19T18:49:58;26.03;;;19.13;;
74122;SDS011;62474;50.780;15.074;2022-08-19T18:52:31;27.80;;;18.52;;
74122;SDS011;62474;50.780;15.074;2022-08-19T18:54:59;26.92;;;17.70;;
74122;SDS011;62474;50.780;15.074;2022-08-19T18:57:25;25.25;;;17.73;;
74122;SDS011;62474;50.780;15.074;2022-08-19T18:59:53;27.45;;;18.48;;
74122;SDS011;62474;50.780;15.074;2022-08-19T19:02:22;26.20;;;17.90;;
74122;SDS011;62474;50.780;15.074;2022-08-19T19:04:51;28.95;;;18.67;;
74122;SDS011;62474;50.780;15.074;2022-08-19T19:07:19;29.10;;;19.50;;
74122;SDS011;62474;50.780;15.074;2022-08-19T19:09:45;29.88;;;18.75;;
74122;SDS011;62474;50.780;15.074;2022-08-19T19:12:20;28.90;;;19.45;;
74122;SDS011;62474;50.780;15.074;2022-08-19T19:14:52;27.23;;;18.47;;
74122;SDS011;62474;50.780;15.074;2022-08-19T19:17:19;29.00;;;19.35;;
74122;SDS011;62474;50.780;15.074;2022-08-19T19:19:52;30.00;;;19.92;;
74122;SDS011;62474;50.780;15.074;2022-08-19T19:22:19;32.20;;;19.77;;
74122;SDS011;62474;50.780;15.074;2022-08-19T19:24:45;34.55;;;21.27;;
74122;SDS011;62474;50.780;15.074;2022-08-19T19:27:13;35.63;;;23.47;;
74122;SDS011;62474;50.780;15.074;2022-08-19T19:29:40;35.28;;;22.52;;
74122;SDS011;62474;50.780;15.074;2022-08-19T19:32:07;33.15;;;22.67;;
74122;SDS011;62474;50.780;15.074;2022-08-19T19:34:36;31.10;;;19.80;;
74122;SDS011;62474;50.780;15.074;2022-08-19T19:37:02;32.08;;;22.17;;
74122;SDS011;62474;50.780;15.074;2022-08-19T19:39:28;33.43;;;21.20;;
74122;SDS011;62474;50.780;15.074;2022-08-19T19:41:54;28.30;;;18.80;;
74122;SDS011;62474;50.780;15.074;2022-08-19T19:44:20;30.90;;;20.55;;
74122;SDS011;62474;50.780;15.074;2022-08-19T19:46:46;29.90;;;19.55;;
74122;SDS011;62474;50.780;15.074;2022-08-19T19:49:13;29.42;;;19.25;;
74122;SDS011;62474;50.780;15.074;2022-08-19T19:51:39;29.33;;;19.83;;
74122;SDS011;62474;50.780;15.074;2022-08-19T19:54:06;28.52;;;18.60;;
74122;SDS011;62474;50.780;15.074;2022-08-19T19:56:32;31.75;;;19.67;;
74122;SDS011;62474;50.780;15.074;2022-08-19T19:58:59;30.05;;;18.30;;
74122;SDS011;62474;50.780;15.074;2022-08-19T20:01:27;32.85;;;20.40;;
74122;SDS011;62474;50.780;15.074;2022-08-19T20:03:53;33.20;;;18.97;;
74122;SDS011;62474;50.780;15.074;2022-08-19T20:06:19;30.50;;;19.70;;
74122;SDS011;62474;50.780;15.074;2022-08-19T20:08:46;31.58;;;20.42;;
74122;SDS011;62474;50.780;15.074;2022-08-19T20:11:44;33.22;;;20.80;;
74122;SDS011;62474;50.780;15.074;2022-08-19T20:14:17;29.70;;;19.50;;
74122;SDS011;62474;50.780;15.074;2022-08-19T20:16:44;27.93;;;18.50;;
